Terminal Aerodrome Forecast
Issued by NWS

Current Version | Previous Version | Text Only | Print | Product List | Glossary Off
Versions: 1 2 3 4 5 6 7 8 9 10 11 12 13 14 15 16 17 18 19 20 21 22 23 24 25 26 27 28

000
FTUS41 KRLX 191139
TAFCKB
TAF
KCKB 191139Z 1912/2012 00000KT 2SM BR SCT002
      TEMPO 1912/1913 1/2SM FG BKN002
     FM191300 00000KT 6SM BR SCT003
      TEMPO 1913/1914 3SM BR BKN003
     FM191400 VRB03KT P6SM SKC
     FM191700 VRB03KT P6SM SCT060
     FM200800 00000KT 1/2SM FG BKN001=

USA.gov is the U.S. government's official web portal to all federal, state and local government web resources and services.